Portada
METAR-TAF:

METAR-TAF

Aeroports :

Nouméa, Nova Caledònia

latitud: 22-15-30S, longitud: 166-28-22E, altitud: 3 m

METAR: manca

Hora: 21:07 (10:07 UTC)

Pronòstic

L'informe es va fer fa 17 hores i 7 minuts, a les 17:00 UTC
Pronòstic vàlid del 21 a les 18 UTC al 22 a les 18 UTC
Vent 15 kt del Est
Visibilitat 10 km o més
Núvols disperses a una alçada de 2000 ft
Evolucionant progressivament
l' 21 a les 22 UTC al 21 a les 24 UTC
Vent 10 kt amb direcció variable amb ràfegues de 20 kt
Escasses núvols a una alçada de 1500 ft
Cel ennuvolat a una alçada de 2000 ft
Probabilitat 30% :
Temporalment
l' 21 a les 18 UTC al 22 a les 10 UTC
Visibilitat: 4000 m
Cel ennuvolat a una alçada de 1400 ft
Escasses núvols a una alçada de 2000 ft, Cumulus congestus.
xàfecs de pluja

TAF: NWWM 211700Z 2118/2218 10015KT 9999 SCT020 BECMG 2122/2124 VRB10G20KT FEW015 BKN020 PROB30 TEMPO 2118/2210 4000 SHRA BKN014 FEW020TCU

Observacions i pronòstics meteorològics de més de 4000 aeroports (METAR i TAF).

Les estacions disponibles són els punts grocs i vermells al mapa.

Posi el ratolí al punt desitjat per veure el nom de l'estació.

Feu clic per veure les observacions i els pronòstics meteorològics.

Per canviar el mapa: feu clic els botons verds amb una creu de color negre per apropar; al botó verd amb un guió per allunyar la imatge; o en les fletxes verdes per a mapes adjacents.


METAR-TAF: